Time;durP1;ratioP1;P1;durP2;ratioP2;P2;SDS_P1;SDS_P2;PMS_P1;PMS_P2;Temp;Humidity;BMP_temperature;BMP_pressure;BME280_temperature;BME280_humidity;BME280_pressure;Samples;Min_cycle;Max_cycle;Signal;HPM_P1;HPM_P2
2022/07/31 00:00:55;;;;;;;3.60;3.08;;;;;;;;;;5049160;28;20029;-73
2022/07/31 00:03:21;;;;;;;5.22;2.97;;;;;;;;;;5033664;28;20494;-73
2022/07/31 00:05:47;;;;;;;3.55;2.80;;;;;;;;;;5033349;28;20360;-73
2022/07/31 00:08:13;;;;;;;5.65;3.00;;;;;;;;;;5033952;28;20024;-72
2022/07/31 00:10:46;;;;;;;7.13;3.00;;;;;;;;;;5034505;28;20117;-73
2022/07/31 00:13:13;;;;;;;4.85;3.00;;;;;;;;;;5023688;28;20495;-72
2022/07/31 00:15:39;;;;;;;3.22;2.92;;;;;;;;;;5032321;28;20029;-73
2022/07/31 00:18:09;;;;;;;3.45;3.00;;;;;;;;;;5034350;28;20092;-72
2022/07/31 00:20:35;;;;;;;3.75;2.80;;;;;;;;;;5040604;28;20386;-73
2022/07/31 00:23:01;;;;;;;5.43;3.20;;;;;;;;;;5033405;28;20113;-74
2022/07/31 00:25:27;;;;;;;4.03;2.80;;;;;;;;;;5033609;28;20040;-73
2022/07/31 00:27:54;;;;;;;5.80;2.90;;;;;;;;;;5033186;28;20025;-73
2022/07/31 00:30:23;;;;;;;3.65;2.97;;;;;;;;;;5033299;28;20095;-72
2022/07/31 00:32:49;;;;;;;4.60;3.20;;;;;;;;;;5031210;28;20021;-73
2022/07/31 00:35:16;;;;;;;3.97;2.75;;;;;;;;;;5035243;28;20092;-73
2022/07/31 00:37:43;;;;;;;3.83;2.90;;;;;;;;;;5032275;28;20564;-72
2022/07/31 00:40:11;;;;;;;5.18;3.08;;;;;;;;;;5042113;28;20029;-73
2022/07/31 00:42:38;;;;;;;4.35;3.20;;;;;;;;;;5038261;28;20079;-73
2022/07/31 00:45:04;;;;;;;4.32;3.30;;;;;;;;;;5033168;28;20435;-72
2022/07/31 00:47:31;;;;;;;3.28;2.97;;;;;;;;;;5032072;28;20040;-71
2022/07/31 00:49:57;;;;;;;4.88;3.40;;;;;;;;;;5033117;28;20120;-72
2022/07/31 00:52:24;;;;;;;7.47;3.33;;;;;;;;;;5030130;28;20030;-72
2022/07/31 00:54:50;;;;;;;3.60;3.10;;;;;;;;;;5029599;28;20018;-72
2022/07/31 00:57:24;;;;;;;3.40;3.10;;;;;;;;;;5033290;28;20064;-73
2022/07/31 00:59:50;;;;;;;3.90;3.25;;;;;;;;;;5025296;28;20037;-73
2022/07/31 01:02:16;;;;;;;5.40;3.10;;;;;;;;;;5015005;28;20538;-71
2022/07/31 01:04:42;;;;;;;4.60;3.25;;;;;;;;;;5031616;28;20052;-73
2022/07/31 01:07:08;;;;;;;4.32;3.10;;;;;;;;;;5025252;28;20025;-73
2022/07/31 01:09:35;;;;;;;3.72;3.20;;;;;;;;;;5019423;28;20372;-71
2022/07/31 01:12:07;;;;;;;4.68;3.17;;;;;;;;;;5052303;28;20028;-73
2022/07/31 01:14:41;;;;;;;4.40;3.10;;;;;;;;;;5036926;28;20056;-72
2022/07/31 01:17:08;;;;;;;4.20;3.55;;;;;;;;;;5031987;28;20033;-73
2022/07/31 01:19:42;;;;;;;5.13;3.38;;;;;;;;;;5034991;28;20028;-72
2022/07/31 01:22:15;;;;;;;4.55;3.60;;;;;;;;;;5028778;28;20017;-73
2022/07/31 01:25:03;;;;;;;4.75;3.70;;;;;;;;;;5037542;28;20021;-73
2022/07/31 01:27:29;;;;;;;3.75;3.33;;;;;;;;;;5032592;28;20386;-72
2022/07/31 01:30:01;;;;;;;5.68;3.78;;;;;;;;;;5032401;28;20041;-72
2022/07/31 01:32:48;;;;;;;5.57;3.85;;;;;;;;;;5032451;28;20033;-73
2022/07/31 01:35:17;;;;;;;4.47;3.38;;;;;;;;;;5031023;28;20029;-72
2022/07/31 01:37:54;;;;;;;4.05;3.50;;;;;;;;;;5029099;28;20034;-73
2022/07/31 01:40:24;;;;;;;4.75;3.60;;;;;;;;;;4997844;28;20034;-72
2022/07/31 01:42:57;;;;;;;3.72;3.42;;;;;;;;;;4993212;28;20022;-73
2022/07/31 01:45:24;;;;;;;5.22;3.53;;;;;;;;;;4998108;28;20026;-72
2022/07/31 01:47:51;;;;;;;5.80;3.83;;;;;;;;;;5022302;28;20030;-74
2022/07/31 01:50:18;;;;;;;4.78;4.15;;;;;;;;;;5015169;28;20045;-72
2022/07/31 01:52:44;;;;;;;5.93;4.00;;;;;;;;;;5012529;28;20387;-73
2022/07/31 01:55:22;;;;;;;4.38;3.95;;;;;;;;;;5018228;28;20037;-73
2022/07/31 01:57:48;;;;;;;6.32;3.63;;;;;;;;;;4993296;28;20483;-72
2022/07/31 02:00:14;;;;;;;6.68;3.65;;;;;;;;;;5012390;28;20472;-72
2022/07/31 02:02:42;;;;;;;5.43;3.70;;;;;;;;;;5012181;28;20018;-72
2022/07/31 02:05:39;;;;;;;5.75;3.83;;;;;;;;;;5014210;28;20030;-73
2022/07/31 02:08:06;;;;;;;4.20;3.67;;;;;;;;;;4993131;28;20034;-71
2022/07/31 02:10:41;;;;;;;5.18;3.70;;;;;;;;;;5014655;28;20045;-72
2022/07/31 02:13:10;;;;;;;4.10;3.42;;;;;;;;;;5015360;28;20050;-71
2022/07/31 02:15:37;;;;;;;5.00;3.95;;;;;;;;;;5015812;28;20033;-72
2022/07/31 02:18:04;;;;;;;4.45;3.45;;;;;;;;;;5014951;28;20022;-72
2022/07/31 02:20:30;;;;;;;4.88;3.50;;;;;;;;;;5018017;28;20030;-73
2022/07/31 02:23:33;;;;;;;4.97;3.65;;;;;;;;;;5022971;28;20030;-72
2022/07/31 02:26:00;;;;;;;5.65;4.05;;;;;;;;;;4996649;28;20037;-73
2022/07/31 02:28:26;;;;;;;4.75;3.80;;;;;;;;;;5014505;28;20037;-72
2022/07/31 02:30:52;;;;;;;4.85;3.83;;;;;;;;;;5017203;28;20084;-73
2022/07/31 02:33:21;;;;;;;5.88;4.22;;;;;;;;;;5016001;28;20025;-73
2022/07/31 02:35:50;;;;;;;4.43;3.70;;;;;;;;;;5015739;28;20119;-72
2022/07/31 02:38:18;;;;;;;4.47;3.97;;;;;;;;;;5015474;28;20038;-73
2022/07/31 02:40:44;;;;;;;6.45;3.97;;;;;;;;;;5017935;28;20065;-73
2022/07/31 02:43:11;;;;;;;4.70;3.90;;;;;;;;;;5023125;28;20037;-73
2022/07/31 02:45:37;;;;;;;5.03;3.78;;;;;;;;;;5015696;28;20014;-72
2022/07/31 02:48:04;;;;;;;6.00;3.60;;;;;;;;;;5015435;28;20041;-73
2022/07/31 02:50:30;;;;;;;5.35;4.03;;;;;;;;;;5017517;28;20038;-73
2022/07/31 02:52:57;;;;;;;5.97;3.63;;;;;;;;;;5022997;28;20361;-72
2022/07/31 02:55:23;;;;;;;6.43;3.85;;;;;;;;;;5015290;28;20030;-72
2022/07/31 02:57:51;;;;;;;5.15;3.70;;;;;;;;;;5016520;28;20028;-73
2022/07/31 03:00:22;;;;;;;4.85;3.90;;;;;;;;;;4997910;28;20056;-73
2022/07/31 03:02:51;;;;;;;4.47;3.58;;;;;;;;;;5024973;28;20080;-72
2022/07/31 03:05:17;;;;;;;4.63;3.75;;;;;;;;;;5015245;28;20467;-72
2022/07/31 03:08:34;;;;;;;5.10;3.50;;;;;;;;;;5021564;28;20049;-72
2022/07/31 03:11:02;;;;;;;4.43;3.60;;;;;;;;;;5018747;28;20046;-73
2022/07/31 03:13:29;;;;;;;4.85;3.50;;;;;;;;;;5021574;28;20105;-72
2022/07/31 03:16:26;;;;;;;4.32;3.63;;;;;;;;;;5016438;28;20073;-73
2022/07/31 03:19:05;;;;;;;7.07;3.90;;;;;;;;;;5017976;28;20592;-73
2022/07/31 03:21:31;;;;;;;4.55;3.75;;;;;;;;;;5014607;28;20040;-72
2022/07/31 03:23:58;;;;;;;4.80;3.80;;;;;;;;;;5014816;28;20026;-72
2022/07/31 03:26:25;;;;;;;5.05;3.75;;;;;;;;;;5019551;28;20379;-73
2022/07/31 03:29:02;;;;;;;4.22;3.60;;;;;;;;;;5018119;28;20022;-72
2022/07/31 03:31:29;;;;;;;4.22;3.67;;;;;;;;;;5014295;28;20030;-72
2022/07/31 03:37:40;;;;;;;3.80;3.25;;;;;;;;;;4935449;29;20410;-73
2022/07/31 03:40:06;;;;;;;3.80;3.33;;;;;;;;;;4932865;29;20040;-73
2022/07/31 03:42:32;;;;;;;5.63;3.22;;;;;;;;;;4916149;29;20112;-72
2022/07/31 03:45:05;;;;;;;3.83;3.40;;;;;;;;;;4933526;29;20043;-72
2022/07/31 03:47:36;;;;;;;3.80;3.40;;;;;;;;;;4942017;28;20032;-73
2022/07/31 03:50:03;;;;;;;3.75;3.25;;;;;;;;;;4931850;29;20039;-72
2022/07/31 03:52:29;;;;;;;4.72;3.25;;;;;;;;;;4925630;29;20363;-73
2022/07/31 03:54:55;;;;;;;4.95;3.50;;;;;;;;;;4929768;29;20044;-73
2022/07/31 03:57:23;;;;;;;5.00;3.50;;;;;;;;;;4935371;29;20521;-73
2022/07/31 03:59:56;;;;;;;5.38;3.40;;;;;;;;;;4931099;29;20046;-72
2022/07/31 04:02:25;;;;;;;11.57;3.47;;;;;;;;;;4927096;29;20027;-72
2022/07/31 04:05:33;;;;;;;5.85;3.55;;;;;;;;;;4931896;29;20035;-73
2022/07/31 04:07:59;;;;;;;7.28;3.30;;;;;;;;;;4934340;29;20098;-73
2022/07/31 04:13:24;;;;;;;7.45;3.33;;;;;;;;;;4926798;28;20035;-73
2022/07/31 04:15:50;;;;;;;4.30;3.25;;;;;;;;;;4966079;28;20042;-73
2022/07/31 04:18:16;;;;;;;4.20;3.50;;;;;;;;;;4975153;28;20039;-73
2022/07/31 04:20:42;;;;;;;3.92;3.40;;;;;;;;;;4972995;28;20087;-73
2022/07/31 04:23:08;;;;;;;3.55;3.08;;;;;;;;;;4962314;28;20063;-72
2022/07/31 04:25:35;;;;;;;7.50;3.70;;;;;;;;;;4954211;28;20055;-73
2022/07/31 04:28:05;;;;;;;5.85;3.47;;;;;;;;;;4973778;28;20045;-73
2022/07/31 04:30:34;;;;;;;5.60;3.20;;;;;;;;;;4968896;28;20049;-73
2022/07/31 04:33:00;;;;;;;5.63;3.45;;;;;;;;;;4950109;28;20505;-72
2022/07/31 04:35:26;;;;;;;9.38;3.30;;;;;;;;;;4951900;28;20384;-72
2022/07/31 04:37:53;;;;;;;6.97;3.80;;;;;;;;;;4953162;28;20035;-71
2022/07/31 04:40:20;;;;;;;5.63;3.35;;;;;;;;;;4977610;28;20540;-72
2022/07/31 04:42:46;;;;;;;4.45;3.45;;;;;;;;;;4968242;28;20039;-72
2022/07/31 04:45:12;;;;;;;5.82;3.65;;;;;;;;;;4970261;28;20432;-71
2022/07/31 04:47:38;;;;;;;3.85;3.15;;;;;;;;;;4970722;28;20033;-71
2022/07/31 04:50:05;;;;;;;4.13;3.10;;;;;;;;;;5003448;28;20506;-75
2022/07/31 04:52:31;;;;;;;4.70;3.13;;;;;;;;;;5022053;28;20450;-70
2022/07/31 04:54:57;;;;;;;5.68;3.47;;;;;;;;;;5042931;28;20033;-69
2022/07/31 04:57:23;;;;;;;4.72;3.15;;;;;;;;;;5030484;28;20029;-68
2022/07/31 04:59:49;;;;;;;4.13;3.20;;;;;;;;;;5037665;28;20028;-69
2022/07/31 05:02:15;;;;;;;5.40;3.33;;;;;;;;;;5034490;28;20386;-68
2022/07/31 05:04:41;;;;;;;5.10;3.33;;;;;;;;;;5041481;28;20037;-76
2022/07/31 05:07:08;;;;;;;6.65;3.30;;;;;;;;;;5031191;28;20109;-72
2022/07/31 05:09:34;;;;;;;4.10;3.33;;;;;;;;;;5013767;28;20419;-78
2022/07/31 05:12:02;;;;;;;3.70;3.20;;;;;;;;;;5014854;28;20475;-75
2022/07/31 05:14:28;;;;;;;3.70;3.30;;;;;;;;;;5032432;28;20086;-77
2022/07/31 05:16:54;;;;;;;4.65;3.00;;;;;;;;;;5032305;28;20026;-71
2022/07/31 05:19:21;;;;;;;6.43;3.08;;;;;;;;;;5030202;28;20079;-69
2022/07/31 05:21:47;;;;;;;4.78;3.20;;;;;;;;;;5015808;28;20036;-69
2022/07/31 05:24:14;;;;;;;4.75;3.58;;;;;;;;;;5032350;28;20075;-66
2022/07/31 05:26:40;;;;;;;3.70;3.10;;;;;;;;;;5032485;28;20032;-65
2022/07/31 05:29:06;;;;;;;4.57;3.10;;;;;;;;;;5032283;28;20028;-66
2022/07/31 05:31:32;;;;;;;5.28;3.20;;;;;;;;;;5031773;28;20116;-66
2022/07/31 05:33:58;;;;;;;6.53;2.80;;;;;;;;;;5032299;28;20018;-67
2022/07/31 05:36:25;;;;;;;3.00;2.80;;;;;;;;;;5032352;28;20117;-66
2022/07/31 05:38:52;;;;;;;4.60;3.10;;;;;;;;;;5031664;28;20123;-66
2022/07/31 05:41:18;;;;;;;4.47;3.00;;;;;;;;;;5031670;28;20049;-65
2022/07/31 05:43:45;;;;;;;6.10;3.00;;;;;;;;;;5032126;28;20435;-66
2022/07/31 05:46:13;;;;;;;5.88;3.10;;;;;;;;;;5029160;28;20057;-67
2022/07/31 05:48:39;;;;;;;4.78;2.80;;;;;;;;;;5016303;28;20471;-66
2022/07/31 05:51:07;;;;;;;3.42;3.03;;;;;;;;;;5033948;28;20479;-72
2022/07/31 05:53:34;;;;;;;3.30;3.00;;;;;;;;;;5034526;28;20025;-72
2022/07/31 05:56:00;;;;;;;5.57;2.88;;;;;;;;;;5034490;28;20030;-72
2022/07/31 05:58:26;;;;;;;3.78;2.78;;;;;;;;;;5036005;28;20360;-71
2022/07/31 06:00:52;;;;;;;4.03;3.10;;;;;;;;;;5017179;28;20037;-71
2022/07/31 06:03:22;;;;;;;3.90;2.90;;;;;;;;;;5034602;28;20021;-71
2022/07/31 06:05:49;;;;;;;6.50;3.67;;;;;;;;;;5034175;28;20041;-71
2022/07/31 06:08:15;;;;;;;14.27;3.80;;;;;;;;;;5030329;28;20026;-69
2022/07/31 06:10:41;;;;;;;11.20;3.67;;;;;;;;;;5032737;28;20048;-72
2022/07/31 06:13:07;;;;;;;12.18;3.15;;;;;;;;;;5039294;28;20561;-67
2022/07/31 06:15:33;;;;;;;3.92;3.20;;;;;;;;;;5035408;28;20034;-68
2022/07/31 06:18:00;;;;;;;5.22;3.20;;;;;;;;;;5035957;28;20075;-69
2022/07/31 06:20:26;;;;;;;6.00;3.50;;;;;;;;;;5033424;28;20032;-67
2022/07/31 06:22:58;;;;;;;3.15;2.88;;;;;;;;;;5034728;28;20095;-69
2022/07/31 06:25:24;;;;;;;4.25;3.00;;;;;;;;;;5025372;28;20103;-68
2022/07/31 06:27:50;;;;;;;3.38;2.80;;;;;;;;;;5033700;28;20103;-66
2022/07/31 06:30:16;;;;;;;3.22;2.80;;;;;;;;;;5032867;28;20045;-75
2022/07/31 06:32:43;;;;;;;7.25;3.30;;;;;;;;;;5016812;28;20014;-72
2022/07/31 06:35:09;;;;;;;6.15;3.67;;;;;;;;;;5032454;28;20036;-71
2022/07/31 06:37:35;;;;;;;3.55;3.15;;;;;;;;;;5034242;28;20025;-72
2022/07/31 06:40:01;;;;;;;4.18;3.25;;;;;;;;;;5034444;28;20061;-72
2022/07/31 06:42:27;;;;;;;3.67;3.08;;;;;;;;;;5034092;28;20101;-71
2022/07/31 06:44:53;;;;;;;5.85;3.35;;;;;;;;;;5031270;28;20026;-71
2022/07/31 06:47:23;;;;;;;5.82;3.55;;;;;;;;;;5037126;28;20021;-71
2022/07/31 06:49:49;;;;;;;4.18;3.17;;;;;;;;;;5048556;28;20483;-71
2022/07/31 06:52:16;;;;;;;4.68;3.22;;;;;;;;;;5040715;28;20479;-71
2022/07/31 06:54:43;;;;;;;6.10;3.70;;;;;;;;;;5034351;28;20367;-72
2022/07/31 06:57:09;;;;;;;14.77;12.02;;;;;;;;;;5033937;28;20029;-75
2022/07/31 06:59:35;;;;;;;9.27;7.28;;;;;;;;;;5033560;28;20030;-74
2022/07/31 07:02:01;;;;;;;5.13;4.43;;;;;;;;;;5035204;28;20017;-67
2022/07/31 07:04:28;;;;;;;5.60;5.05;;;;;;;;;;5028380;28;20029;-76
2022/07/31 07:06:54;;;;;;;6.47;5.07;;;;;;;;;;5032512;28;20026;-73
2022/07/31 07:09:20;;;;;;;3.75;3.42;;;;;;;;;;5035561;28;20034;-70
2022/07/31 07:11:46;;;;;;;4.43;4.03;;;;;;;;;;5034260;28;20037;-67
2022/07/31 07:14:13;;;;;;;5.40;3.88;;;;;;;;;;5034970;28;20017;-76
2022/07/31 07:16:42;;;;;;;10.15;5.72;;;;;;;;;;5037551;28;20501;-71
2022/07/31 07:19:08;;;;;;;6.97;3.90;;;;;;;;;;5034365;28;20105;-68
2022/07/31 07:21:34;;;;;;;3.72;3.42;;;;;;;;;;5037378;28;20482;-67
2022/07/31 07:24:00;;;;;;;7.38;4.10;;;;;;;;;;5033918;28;20041;-73
2022/07/31 07:26:37;;;;;;;43.85;5.15;;;;;;;;;;5022666;28;20029;-71
2022/07/31 07:29:05;;;;;;;5.93;3.47;;;;;;;;;;5020014;28;20034;-68
2022/07/31 07:31:31;;;;;;;5.47;3.53;;;;;;;;;;5042016;28;20493;-67
2022/07/31 07:33:57;;;;;;;4.18;3.35;;;;;;;;;;5038139;28;20100;-71
2022/07/31 07:36:24;;;;;;;12.40;3.60;;;;;;;;;;5044170;28;20034;-73
2022/07/31 07:38:50;;;;;;;5.53;3.50;;;;;;;;;;5031902;28;20044;-77
2022/07/31 07:41:16;;;;;;;6.13;3.20;;;;;;;;;;5029528;28;20041;-75
2022/07/31 07:43:42;;;;;;;5.95;3.45;;;;;;;;;;5033430;28;20022;-72
2022/07/31 07:46:08;;;;;;;6.68;3.28;;;;;;;;;;5015474;28;20095;-73
2022/07/31 07:48:34;;;;;;;6.57;3.17;;;;;;;;;;5033215;28;20040;-81
2022/07/31 07:51:00;;;;;;;5.82;3.47;;;;;;;;;;5015799;28;20028;-85
2022/07/31 07:53:26;;;;;;;4.65;3.00;;;;;;;;;;5019874;28;20128;-83
2022/07/31 07:55:52;;;;;;;4.18;2.60;;;;;;;;;;5017308;28;20044;-76
2022/07/31 07:58:19;;;;;;;7.28;2.92;;;;;;;;;;5037151;28;20147;-77
2022/07/31 08:00:45;;;;;;;6.78;2.90;;;;;;;;;;5032661;28;20021;-84
2022/07/31 08:03:11;;;;;;;3.53;2.80;;;;;;;;;;5013699;28;20021;-76
2022/07/31 08:05:37;;;;;;;5.80;2.67;;;;;;;;;;5032802;28;20033;-74
2022/07/31 08:08:03;;;;;;;6.72;2.60;;;;;;;;;;5031318;28;20030;-70
2022/07/31 08:10:29;;;;;;;4.15;2.30;;;;;;;;;;5032487;28;20065;-66
2022/07/31 08:12:56;;;;;;;3.75;2.42;;;;;;;;;;5010702;28;20025;-70
2022/07/31 08:15:23;;;;;;;3.80;2.70;;;;;;;;;;5021742;28;20030;-68
2022/07/31 08:17:49;;;;;;;5.75;2.70;;;;;;;;;;5017829;28;20109;-69
2022/07/31 08:20:15;;;;;;;4.88;2.70;;;;;;;;;;5023068;28;20078;-68
2022/07/31 08:22:41;;;;;;;4.20;2.83;;;;;;;;;;5023011;28;20024;-78
2022/07/31 08:25:09;;;;;;;8.00;3.00;;;;;;;;;;5018918;28;20061;-75
2022/07/31 08:27:36;;;;;;;3.63;2.40;;;;;;;;;;5013409;28;20017;-70
2022/07/31 08:30:02;;;;;;;3.65;2.60;;;;;;;;;;5020910;28;20037;-89
2022/07/31 08:32:37;;;;;;;12.63;2.78;;;;;;;;;;5026011;28;20063;-71
2022/07/31 08:35:03;;;;;;;9.30;2.55;;;;;;;;;;5029542;28;20073;-70
2022/07/31 08:37:29;;;;;;;5.35;2.40;;;;;;;;;;5032414;28;20030;-74
2022/07/31 08:39:55;;;;;;;4.63;2.40;;;;;;;;;;5032160;28;20049;-71
2022/07/31 08:42:21;;;;;;;5.03;2.30;;;;;;;;;;5027959;28;20026;-72
2022/07/31 08:44:47;;;;;;;7.40;2.53;;;;;;;;;;5030965;28;20052;-83
2022/07/31 08:47:14;;;;;;;5.70;2.42;;;;;;;;;;5033654;28;20091;-79
2022/07/31 08:49:43;;;;;;;7.13;2.45;;;;;;;;;;5032473;28;20025;-77
2022/07/31 08:52:10;;;;;;;3.55;2.20;;;;;;;;;;5039574;28;20029;-75
2022/07/31 08:54:36;;;;;;;3.83;2.50;;;;;;;;;;5037088;28;20095;-77
2022/07/31 08:57:03;;;;;;;8.02;2.42;;;;;;;;;;5032790;28;20029;-77
2022/07/31 08:59:30;;;;;;;5.63;2.63;;;;;;;;;;5012950;28;20442;-75
2022/07/31 09:01:57;;;;;;;4.68;2.53;;;;;;;;;;5032140;28;20033;-72
2022/07/31 09:04:39;;;;;;;9.93;2.47;;;;;;;;;;5031764;28;20036;-70
2022/07/31 09:07:09;;;;;;;3.78;2.30;;;;;;;;;;5013657;28;20029;-75
2022/07/31 09:09:41;;;;;;;9.80;2.22;;;;;;;;;;5031213;28;20046;-73
2022/07/31 09:12:08;;;;;;;3.85;2.20;;;;;;;;;;5029783;28;20021;-71
2022/07/31 09:14:34;;;;;;;5.72;2.20;;;;;;;;;;5028117;28;20427;-71
2022/07/31 09:17:01;;;;;;;7.47;3.00;;;;;;;;;;5031112;28;20045;-71
2022/07/31 09:19:53;;;;;;;9.57;2.70;;;;;;;;;;5039087;28;20025;-73
2022/07/31 09:22:24;;;;;;;7.63;2.75;;;;;;;;;;5023426;28;20045;-72
2022/07/31 09:24:50;;;;;;;6.50;2.45;;;;;;;;;;5035047;28;20101;-75
2022/07/31 09:27:16;;;;;;;3.10;2.28;;;;;;;;;;5028962;28;20359;-74
2022/07/31 09:29:51;;;;;;;7.13;2.80;;;;;;;;;;5025718;28;20487;-69
2022/07/31 09:32:19;;;;;;;5.85;2.47;;;;;;;;;;5028732;28;20095;-69
2022/07/31 09:34:47;;;;;;;5.97;2.30;;;;;;;;;;5019004;28;20384;-72
2022/07/31 09:37:20;;;;;;;7.40;2.58;;;;;;;;;;5038658;28;20494;-70
2022/07/31 09:39:58;;;;;;;11.70;2.53;;;;;;;;;;5009763;28;20084;-72
2022/07/31 09:42:34;;;;;;;10.15;2.90;;;;;;;;;;5007131;28;20109;-86
2022/07/31 09:45:01;;;;;;;10.30;2.33;;;;;;;;;;5006358;28;20510;-81
2022/07/31 09:47:28;;;;;;;9.40;2.70;;;;;;;;;;5011017;28;20021;-75
2022/07/31 09:49:57;;;;;;;4.57;2.35;;;;;;;;;;5012039;28;20060;-86
2022/07/31 09:52:23;;;;;;;6.90;2.20;;;;;;;;;;5010103;28;20483;-77
2022/07/31 09:54:59;;;;;;;12.13;2.40;;;;;;;;;;4992560;28;20037;-81
2022/07/31 09:57:26;;;;;;;5.40;2.33;;;;;;;;;;5011920;28;20060;-86
2022/07/31 09:59:52;;;;;;;10.15;2.78;;;;;;;;;;5000363;28;20062;-85
2022/07/31 10:02:26;;;;;;;8.63;2.30;;;;;;;;;;5010442;28;20026;-71
2022/07/31 10:04:54;;;;;;;11.75;2.50;;;;;;;;;;5006194;28;20092;-83
2022/07/31 10:07:24;;;;;;;6.18;2.20;;;;;;;;;;5003596;28;20020;-81
2022/07/31 10:09:50;;;;;;;5.13;2.30;;;;;;;;;;5009620;28;20030;-76
2022/07/31 10:12:19;;;;;;;9.73;2.47;;;;;;;;;;5009057;28;20081;-74
2022/07/31 10:14:46;;;;;;;7.68;2.40;;;;;;;;;;5008393;28;20113;-71
2022/07/31 10:17:14;;;;;;;4.82;2.38;;;;;;;;;;5009232;28;20556;-74
2022/07/31 10:19:41;;;;;;;5.25;2.30;;;;;;;;;;5009734;28;20033;-76
2022/07/31 10:22:09;;;;;;;5.43;2.47;;;;;;;;;;5012189;28;20373;-77
2022/07/31 10:24:39;;;;;;;8.25;2.20;;;;;;;;;;5009403;28;20022;-73
2022/07/31 10:27:06;;;;;;;9.10;2.60;;;;;;;;;;5010921;28;20408;-76
2022/07/31 10:29:33;;;;;;;14.70;2.63;;;;;;;;;;5011785;28;20117;-75
2022/07/31 10:32:00;;;;;;;18.10;2.63;;;;;;;;;;5012144;28;20022;-69
2022/07/31 10:34:26;;;;;;;31.92;3.88;;;;;;;;;;5012373;28;20018;-69
2022/07/31 10:36:54;;;;;;;10.05;2.45;;;;;;;;;;5015410;28;20042;-77
2022/07/31 10:39:23;;;;;;;8.52;2.50;;;;;;;;;;5015475;28;20053;-70
2022/07/31 10:42:05;;;;;;;6.78;2.30;;;;;;;;;;5013710;28;20022;-71
2022/07/31 10:44:47;;;;;;;5.85;2.60;;;;;;;;;;5015007;28;20529;-74
2022/07/31 10:47:16;;;;;;;12.25;2.33;;;;;;;;;;5013011;28;20044;-74
2022/07/31 10:49:44;;;;;;;4.53;2.10;;;;;;;;;;5014787;28;20038;-74
2022/07/31 10:52:10;;;;;;;4.43;2.17;;;;;;;;;;5013553;28;20065;-71
2022/07/31 10:54:43;;;;;;;7.63;2.20;;;;;;;;;;5009256;28;20022;-71
2022/07/31 10:57:20;;;;;;;3.03;2.20;;;;;;;;;;5013790;28;20546;-70
2022/07/31 10:59:46;;;;;;;5.00;2.30;;;;;;;;;;5013864;28;20029;-80
2022/07/31 11:02:12;;;;;;;4.70;2.42;;;;;;;;;;5013244;28;20045;-71
2022/07/31 11:04:38;;;;;;;3.72;2.47;;;;;;;;;;5014176;28;20022;-76
2022/07/31 11:07:14;;;;;;;4.68;2.25;;;;;;;;;;5014830;28;20038;-77
2022/07/31 11:09:42;;;;;;;6.78;2.83;;;;;;;;;;5017958;28;20442;-78
2022/07/31 11:12:18;;;;;;;5.28;2.30;;;;;;;;;;4997336;28;20072;-77
2022/07/31 11:14:44;;;;;;;5.18;2.40;;;;;;;;;;5014374;28;20049;-71
2022/07/31 11:17:10;;;;;;;4.18;2.22;;;;;;;;;;5014744;28;20558;-75
2022/07/31 11:19:40;;;;;;;6.82;2.35;;;;;;;;;;5014830;28;20036;-73
2022/07/31 11:22:11;;;;;;;3.60;2.30;;;;;;;;;;5015223;28;20042;-75
2022/07/31 11:24:37;;;;;;;5.03;2.10;;;;;;;;;;5018479;28;20105;-71
2022/07/31 11:27:04;;;;;;;6.45;2.10;;;;;;;;;;5013976;28;20061;-71
2022/07/31 11:29:31;;;;;;;9.82;2.40;;;;;;;;;;5014299;28;20034;-75
2022/07/31 11:32:16;;;;;;;4.90;2.50;;;;;;;;;;5018824;28;20035;-71
2022/07/31 11:34:53;;;;;;;3.58;1.88;;;;;;;;;;5001895;28;20033;-71
2022/07/31 11:37:27;;;;;;;12.95;2.65;;;;;;;;;;5021933;28;20387;-71
2022/07/31 11:39:54;;;;;;;22.88;3.28;;;;;;;;;;5043284;28;20048;-71
2022/07/31 11:42:21;;;;;;;21.55;3.78;;;;;;;;;;5040412;28;20018;-70
2022/07/31 11:44:47;;;;;;;4.90;2.63;;;;;;;;;;5043220;28;20057;-77
2022/07/31 11:47:13;;;;;;;5.63;2.50;;;;;;;;;;5035677;28;20033;-76
2022/07/31 11:49:40;;;;;;;3.47;2.08;;;;;;;;;;5038319;28;20029;-78
2022/07/31 11:52:07;;;;;;;16.60;3.70;;;;;;;;;;5047214;28;20091;-71
2022/07/31 11:54:33;;;;;;;34.78;5.63;;;;;;;;;;5038113;28;20383;-78
2022/07/31 11:56:59;;;;;;;16.88;3.40;;;;;;;;;;5035518;28;20017;-78
2022/07/31 11:59:31;;;;;;;14.20;2.83;;;;;;;;;;5006858;28;20383;-80
2022/07/31 12:02:11;;;;;;;7.60;2.33;;;;;;;;;;5038014;28;20087;-77
2022/07/31 12:04:39;;;;;;;8.02;1.92;;;;;;;;;;5016303;28;20498;-71
2022/07/31 12:07:06;;;;;;;9.40;2.58;;;;;;;;;;5032338;28;20057;-75
2022/07/31 12:09:32;;;;;;;2.83;1.98;;;;;;;;;;5032360;28;20102;-79
2022/07/31 12:11:59;;;;;;;5.07;2.03;;;;;;;;;;5033586;28;20029;-73
2022/07/31 12:14:32;;;;;;;6.57;2.00;;;;;;;;;;5032868;28;20018;-76
2022/07/31 12:16:58;;;;;;;;;;;;;;;;;;5030648;28;20037;-76
2022/07/31 12:19:34;;;;;;;3.97;2.58;;;;;;;;;;5026191;28;19909;-74
2022/07/31 12:22:01;;;;;;;7.38;2.25;;;;;;;;;;5031827;28;20056;-79
2022/07/31 12:24:27;;;;;;;12.98;2.72;;;;;;;;;;5033611;28;20017;-78
2022/07/31 12:26:54;;;;;;;7.93;2.22;;;;;;;;;;5031707;28;20076;-71
2022/07/31 12:29:30;;;;;;;13.27;2.85;;;;;;;;;;5031345;28;20030;-74
2022/07/31 12:31:57;;;;;;;4.88;2.00;;;;;;;;;;5044937;28;20458;-81
2022/07/31 12:34:37;;;;;;;4.53;2.20;;;;;;;;;;5036610;28;20096;-72
2022/07/31 12:37:06;;;;;;;8.43;2.17;;;;;;;;;;5031795;28;20099;-72
2022/07/31 12:39:36;;;;;;;4.47;1.98;;;;;;;;;;5040926;28;20403;-80
2022/07/31 12:42:03;;;;;;;3.20;2.08;;;;;;;;;;5036508;28;20062;-75
2022/07/31 12:44:29;;;;;;;5.18;2.10;;;;;;;;;;5036557;28;20030;-78
2022/07/31 12:46:55;;;;;;;2.22;1.83;;;;;;;;;;5041769;28;20079;-80
2022/07/31 12:49:21;;;;;;;2.42;1.95;;;;;;;;;;5041671;28;20036;-79
2022/07/31 12:51:47;;;;;;;7.80;2.28;;;;;;;;;;5042726;28;20515;-80
2022/07/31 12:54:15;;;;;;;7.10;2.60;;;;;;;;;;5032909;28;20056;-69
2022/07/31 12:56:42;;;;;;;2.47;2.10;;;;;;;;;;5045898;28;20025;-75
2022/07/31 12:59:08;;;;;;;5.70;2.20;;;;;;;;;;5032149;28;20112;-80
2022/07/31 13:01:35;;;;;;;6.85;2.20;;;;;;;;;;5036177;28;20025;-80
2022/07/31 13:04:02;;;;;;;4.72;2.60;;;;;;;;;;5028365;28;20033;-72
2022/07/31 13:06:31;;;;;;;4.80;2.03;;;;;;;;;;5035245;28;20065;-77
2022/07/31 13:08:57;;;;;;;6.55;2.45;;;;;;;;;;5028657;28;20029;-74
2022/07/31 13:11:29;;;;;;;7.38;2.35;;;;;;;;;;5031627;28;20041;-74
2022/07/31 13:13:57;;;;;;;1.90;1.73;;;;;;;;;;5033142;28;20432;-71
2022/07/31 13:16:23;;;;;;;5.53;2.33;;;;;;;;;;5032224;28;20037;-71
2022/07/31 13:18:49;;;;;;;8.77;2.58;;;;;;;;;;5031197;28;20387;-77
2022/07/31 13:21:15;;;;;;;3.80;2.15;;;;;;;;;;5019068;28;20041;-78
2022/07/31 13:23:41;;;;;;;4.60;2.50;;;;;;;;;;5039169;28;20029;-81
2022/07/31 13:26:07;;;;;;;4.22;2.28;;;;;;;;;;5037619;28;20032;-71
2022/07/31 13:28:33;;;;;;;3.55;2.33;;;;;;;;;;5041998;28;20569;-73
2022/07/31 13:30:59;;;;;;;3.70;2.10;;;;;;;;;;5037301;28;20049;-79
2022/07/31 13:33:25;;;;;;;5.22;2.25;;;;;;;;;;5033428;28;20108;-78
2022/07/31 13:35:51;;;;;;;4.82;2.35;;;;;;;;;;5036540;28;20025;-78
2022/07/31 13:38:17;;;;;;;6.00;2.20;;;;;;;;;;5051774;28;20045;-71
2022/07/31 13:43:28;;;;;;;6.75;2.30;;;;;;;;;;5032195;28;20451;-71
2022/07/31 13:45:54;;;;;;;7.18;2.35;;;;;;;;;;5036772;28;20029;-77
2022/07/31 13:48:21;;;;;;;5.28;2.35;;;;;;;;;;5030230;28;20359;-78
2022/07/31 13:50:47;;;;;;;5.22;2.13;;;;;;;;;;5040712;28;20139;-70
2022/07/31 13:53:13;;;;;;;4.45;1.92;;;;;;;;;;5039635;28;20108;-75
2022/07/31 13:55:39;;;;;;;3.40;2.03;;;;;;;;;;5030916;28;20030;-76
2022/07/31 13:58:06;;;;;;;7.70;2.40;;;;;;;;;;5031152;28;20025;-79
2022/07/31 14:00:32;;;;;;;5.10;2.13;;;;;;;;;;5030263;28;20033;-74
2022/07/31 14:02:58;;;;;;;3.55;2.10;;;;;;;;;;5034721;28;20099;-71
2022/07/31 14:05:24;;;;;;;5.35;2.08;;;;;;;;;;5042239;28;20072;-71
2022/07/31 14:07:50;;;;;;;2.88;2.00;;;;;;;;;;5026666;28;20030;-76
2022/07/31 14:10:16;;;;;;;3.83;2.00;;;;;;;;;;5034677;28;20029;-72
2022/07/31 14:12:42;;;;;;;4.03;2.10;;;;;;;;;;5033918;28;20029;-71
2022/07/31 14:15:09;;;;;;;7.22;2.30;;;;;;;;;;5036019;28;20029;-70
2022/07/31 14:17:35;;;;;;;4.72;2.40;;;;;;;;;;5035881;28;20108;-77
2022/07/31 14:20:01;;;;;;;5.47;2.30;;;;;;;;;;5033694;28;20056;-78
2022/07/31 14:22:28;;;;;;;5.20;2.28;;;;;;;;;;5035091;28;20025;-78
2022/07/31 14:24:55;;;;;;;6.63;2.13;;;;;;;;;;5034952;28;20060;-75
2022/07/31 14:27:21;;;;;;;5.78;2.30;;;;;;;;;;5035766;28;20025;-69
2022/07/31 14:29:47;;;;;;;2.83;2.00;;;;;;;;;;5045506;28;20291;-78
2022/07/31 14:32:13;;;;;;;4.50;2.00;;;;;;;;;;5035511;28;20482;-75
2022/07/31 14:34:39;;;;;;;3.05;2.10;;;;;;;;;;5034226;28;20033;-69
2022/07/31 14:37:05;;;;;;;2.92;1.98;;;;;;;;;;5034889;28;20021;-70
2022/07/31 14:39:31;;;;;;;5.75;2.17;;;;;;;;;;5035428;28;20510;-76
2022/07/31 14:41:57;;;;;;;8.35;2.22;;;;;;;;;;5025651;28;20029;-78
2022/07/31 14:44:23;;;;;;;2.20;2.00;;;;;;;;;;5033464;28;20055;-70
2022/07/31 14:46:50;;;;;;;3.00;2.10;;;;;;;;;;5048558;28;20017;-78
2022/07/31 14:49:16;;;;;;;4.60;2.22;;;;;;;;;;5040138;28;20033;-78
2022/07/31 14:51:42;;;;;;;4.75;2.20;;;;;;;;;;5033486;28;20057;-78
2022/07/31 14:54:08;;;;;;;20.95;3.47;;;;;;;;;;5034857;28;20029;-70
2022/07/31 14:56:34;;;;;;;9.32;2.20;;;;;;;;;;5032524;28;20022;-77
2022/07/31 14:59:00;;;;;;;6.38;2.30;;;;;;;;;;5030402;28;20025;-74